sensor_id;sensor_type;location;lat;lon;timestamp;P1;durP1;ratioP1;P2;durP2;ratioP2
7460;SDS011;6757;52.258;12.840;2023-03-04T00:00:57;9.52;;;5.55;;
7460;SDS011;6757;52.258;12.840;2023-03-04T00:03:23;18.33;;;6.30;;
7460;SDS011;6757;52.258;12.840;2023-03-04T00:05:50;13.82;;;6.13;;
7460;SDS011;6757;52.258;12.840;2023-03-04T00:08:18;15.65;;;6.88;;
7460;SDS011;6757;52.258;12.840;2023-03-04T00:10:45;22.58;;;5.57;;
7460;SDS011;6757;52.258;12.840;2023-03-04T00:13:12;8.30;;;4.82;;
7460;SDS011;6757;52.258;12.840;2023-03-04T00:15:40;9.05;;;4.22;;
7460;SDS011;6757;52.258;12.840;2023-03-04T00:18:07;12.38;;;5.90;;
7460;SDS011;6757;52.258;12.840;2023-03-04T00:20:34;10.75;;;4.90;;
7460;SDS011;6757;52.258;12.840;2023-03-04T00:23:01;8.50;;;3.50;;
7460;SDS011;6757;52.258;12.840;2023-03-04T00:25:29;7.03;;;3.92;;
7460;SDS011;6757;52.258;12.840;2023-03-04T00:27:57;12.35;;;4.82;;
7460;SDS011;6757;52.258;12.840;2023-03-04T00:30:25;8.35;;;4.72;;
7460;SDS011;6757;52.258;12.840;2023-03-04T00:32:52;8.65;;;4.28;;
7460;SDS011;6757;52.258;12.840;2023-03-04T00:35:19;7.45;;;3.65;;
7460;SDS011;6757;52.258;12.840;2023-03-04T00:37:45;15.35;;;5.13;;
7460;SDS011;6757;52.258;12.840;2023-03-04T00:40:12;9.77;;;4.95;;
7460;SDS011;6757;52.258;12.840;2023-03-04T00:42:41;6.28;;;3.50;;
7460;SDS011;6757;52.258;12.840;2023-03-04T00:45:08;12.52;;;4.18;;
7460;SDS011;6757;52.258;12.840;2023-03-04T00:47:36;12.95;;;4.10;;
7460;SDS011;6757;52.258;12.840;2023-03-04T00:50:03;9.02;;;3.97;;
7460;SDS011;6757;52.258;12.840;2023-03-04T00:52:31;5.70;;;2.72;;
7460;SDS011;6757;52.258;12.840;2023-03-04T00:54:57;8.73;;;3.22;;
7460;SDS011;6757;52.258;12.840;2023-03-04T00:57:24;7.65;;;5.00;;
7460;SDS011;6757;52.258;12.840;2023-03-04T00:59:52;10.57;;;4.15;;
7460;SDS011;6757;52.258;12.840;2023-03-04T01:02:19;6.47;;;2.97;;
7460;SDS011;6757;52.258;12.840;2023-03-04T01:04:46;11.32;;;4.43;;
7460;SDS011;6757;52.258;12.840;2023-03-04T01:07:13;9.52;;;3.53;;
7460;SDS011;6757;52.258;12.840;2023-03-04T01:09:40;6.22;;;3.03;;
7460;SDS011;6757;52.258;12.840;2023-03-04T01:12:07;11.60;;;4.55;;
7460;SDS011;6757;52.258;12.840;2023-03-04T01:14:34;9.10;;;4.22;;
7460;SDS011;6757;52.258;12.840;2023-03-04T01:17:02;10.15;;;3.58;;
7460;SDS011;6757;52.258;12.840;2023-03-04T01:19:29;8.30;;;3.38;;
7460;SDS011;6757;52.258;12.840;2023-03-04T01:21:56;9.73;;;3.50;;
7460;SDS011;6757;52.258;12.840;2023-03-04T01:24:23;10.60;;;3.72;;
7460;SDS011;6757;52.258;12.840;2023-03-04T01:26:50;8.57;;;2.97;;
7460;SDS011;6757;52.258;12.840;2023-03-04T01:29:16;6.13;;;2.72;;
7460;SDS011;6757;52.258;12.840;2023-03-04T01:31:43;8.13;;;4.85;;
7460;SDS011;6757;52.258;12.840;2023-03-04T01:34:11;9.02;;;4.55;;
7460;SDS011;6757;52.258;12.840;2023-03-04T01:36:38;5.97;;;3.53;;
7460;SDS011;6757;52.258;12.840;2023-03-04T01:39:05;7.93;;;3.35;;
7460;SDS011;6757;52.258;12.840;2023-03-04T01:41:32;11.55;;;3.13;;
7460;SDS011;6757;52.258;12.840;2023-03-04T01:43:59;3.88;;;1.75;;
7460;SDS011;6757;52.258;12.840;2023-03-04T01:46:27;6.88;;;3.53;;
7460;SDS011;6757;52.258;12.840;2023-03-04T01:48:55;6.43;;;4.40;;
7460;SDS011;6757;52.258;12.840;2023-03-04T01:51:24;10.82;;;3.65;;
7460;SDS011;6757;52.258;12.840;2023-03-04T01:53:51;6.30;;;3.78;;
7460;SDS011;6757;52.258;12.840;2023-03-04T01:56:21;10.60;;;2.53;;
7460;SDS011;6757;52.258;12.840;2023-03-04T01:59:09;4.40;;;2.13;;
7460;SDS011;6757;52.258;12.840;2023-03-04T02:01:39;5.60;;;3.05;;
7460;SDS011;6757;52.258;12.840;2023-03-04T02:04:08;5.88;;;3.15;;
7460;SDS011;6757;52.258;12.840;2023-03-04T02:06:36;3.03;;;1.58;;
7460;SDS011;6757;52.258;12.840;2023-03-04T02:09:05;7.47;;;3.67;;
7460;SDS011;6757;52.258;12.840;2023-03-04T02:11:33;11.30;;;3.03;;
7460;SDS011;6757;52.258;12.840;2023-03-04T02:14:01;16.52;;;4.70;;
7460;SDS011;6757;52.258;12.840;2023-03-04T02:16:28;6.45;;;3.25;;
7460;SDS011;6757;52.258;12.840;2023-03-04T02:18:57;12.32;;;3.17;;
7460;SDS011;6757;52.258;12.840;2023-03-04T02:21:25;7.88;;;3.92;;
7460;SDS011;6757;52.258;12.840;2023-03-04T02:23:58;7.05;;;2.55;;
7460;SDS011;6757;52.258;12.840;2023-03-04T02:26:36;5.72;;;3.20;;
7460;SDS011;6757;52.258;12.840;2023-03-04T02:29:05;5.40;;;2.03;;
7460;SDS011;6757;52.258;12.840;2023-03-04T02:31:33;5.55;;;2.33;;
7460;SDS011;6757;52.258;12.840;2023-03-04T02:34:03;2.85;;;1.55;;
7460;SDS011;6757;52.258;12.840;2023-03-04T02:36:36;6.50;;;2.13;;
7460;SDS011;6757;52.258;12.840;2023-03-04T02:39:04;9.20;;;2.13;;
7460;SDS011;6757;52.258;12.840;2023-03-04T02:41:38;10.13;;;2.80;;
7460;SDS011;6757;52.258;12.840;2023-03-04T02:44:08;8.40;;;2.92;;
7460;SDS011;6757;52.258;12.840;2023-03-04T02:46:43;3.65;;;2.13;;
7460;SDS011;6757;52.258;12.840;2023-03-04T02:49:11;3.45;;;1.60;;
7460;SDS011;6757;52.258;12.840;2023-03-04T02:51:38;5.97;;;2.78;;
7460;SDS011;6757;52.258;12.840;2023-03-04T02:54:13;2.65;;;1.92;;
7460;SDS011;6757;52.258;12.840;2023-03-04T02:56:44;4.63;;;2.95;;
7460;SDS011;6757;52.258;12.840;2023-03-04T02:59:12;6.55;;;2.33;;
7460;SDS011;6757;52.258;12.840;2023-03-04T03:01:39;3.75;;;1.75;;
7460;SDS011;6757;52.258;12.840;2023-03-04T03:04:06;4.70;;;1.95;;
7460;SDS011;6757;52.258;12.840;2023-03-04T03:06:33;14.40;;;3.15;;
7460;SDS011;6757;52.258;12.840;2023-03-04T03:09:00;3.15;;;1.45;;
7460;SDS011;6757;52.258;12.840;2023-03-04T03:11:27;1.38;;;1.02;;
7460;SDS011;6757;52.258;12.840;2023-03-04T03:13:55;3.92;;;2.30;;
7460;SDS011;6757;52.258;12.840;2023-03-04T03:16:22;1.88;;;0.95;;
7460;SDS011;6757;52.258;12.840;2023-03-04T03:18:50;1.58;;;1.48;;
7460;SDS011;6757;52.258;12.840;2023-03-04T03:21:17;9.10;;;3.17;;
7460;SDS011;6757;52.258;12.840;2023-03-04T03:23:44;2.72;;;1.60;;
7460;SDS011;6757;52.258;12.840;2023-03-04T03:26:11;2.33;;;1.45;;
7460;SDS011;6757;52.258;12.840;2023-03-04T03:28:37;4.10;;;2.22;;
7460;SDS011;6757;52.258;12.840;2023-03-04T03:31:06;10.73;;;1.77;;
7460;SDS011;6757;52.258;12.840;2023-03-04T03:33:33;2.90;;;1.80;;
7460;SDS011;6757;52.258;12.840;2023-03-04T03:36:00;2.55;;;1.40;;
7460;SDS011;6757;52.258;12.840;2023-03-04T03:38:27;8.23;;;2.08;;
7460;SDS011;6757;52.258;12.840;2023-03-04T03:40:54;1.65;;;1.50;;
7460;SDS011;6757;52.258;12.840;2023-03-04T03:43:21;2.13;;;1.15;;
7460;SDS011;6757;52.258;12.840;2023-03-04T03:45:48;12.38;;;3.33;;
7460;SDS011;6757;52.258;12.840;2023-03-04T03:48:17;2.22;;;1.02;;
7460;SDS011;6757;52.258;12.840;2023-03-04T03:50:44;0.98;;;0.98;;
7460;SDS011;6757;52.258;12.840;2023-03-04T03:53:11;2.67;;;1.73;;
7460;SDS011;6757;52.258;12.840;2023-03-04T03:55:37;2.33;;;1.48;;
7460;SDS011;6757;52.258;12.840;2023-03-04T03:58:04;3.00;;;1.20;;
7460;SDS011;6757;52.258;12.840;2023-03-04T04:00:31;4.03;;;1.23;;
7460;SDS011;6757;52.258;12.840;2023-03-04T04:02:59;2.22;;;1.48;;
7460;SDS011;6757;52.258;12.840;2023-03-04T04:05:27;7.95;;;1.25;;
7460;SDS011;6757;52.258;12.840;2023-03-04T04:07:54;4.45;;;1.25;;
7460;SDS011;6757;52.258;12.840;2023-03-04T04:10:21;1.20;;;0.93;;
7460;SDS011;6757;52.258;12.840;2023-03-04T04:12:48;0.88;;;0.88;;
7460;SDS011;6757;52.258;12.840;2023-03-04T04:15:15;2.95;;;1.30;;
7460;SDS011;6757;52.258;12.840;2023-03-04T04:17:42;2.63;;;1.45;;
7460;SDS011;6757;52.258;12.840;2023-03-04T04:20:09;2.35;;;0.98;;
7460;SDS011;6757;52.258;12.840;2023-03-04T04:22:38;0.55;;;0.55;;
7460;SDS011;6757;52.258;12.840;2023-03-04T04:25:05;3.58;;;1.70;;
7460;SDS011;6757;52.258;12.840;2023-03-04T04:27:34;3.03;;;0.88;;
7460;SDS011;6757;52.258;12.840;2023-03-04T04:30:02;6.30;;;1.02;;
7460;SDS011;6757;52.258;12.840;2023-03-04T04:32:30;0.88;;;0.75;;
7460;SDS011;6757;52.258;12.840;2023-03-04T04:34:57;1.60;;;1.25;;
7460;SDS011;6757;52.258;12.840;2023-03-04T04:37:24;0.65;;;0.65;;
7460;SDS011;6757;52.258;12.840;2023-03-04T04:39:52;3.83;;;1.25;;
7460;SDS011;6757;52.258;12.840;2023-03-04T04:42:19;1.27;;;1.08;;
7460;SDS011;6757;52.258;12.840;2023-03-04T04:44:46;1.83;;;1.20;;
7460;SDS011;6757;52.258;12.840;2023-03-04T04:47:13;3.50;;;1.52;;
7460;SDS011;6757;52.258;12.840;2023-03-04T04:49:40;1.80;;;0.82;;
7460;SDS011;6757;52.258;12.840;2023-03-04T04:52:07;0.82;;;0.60;;
7460;SDS011;6757;52.258;12.840;2023-03-04T04:54:34;3.00;;;1.63;;
7460;SDS011;6757;52.258;12.840;2023-03-04T04:57:02;1.95;;;1.05;;
7460;SDS011;6757;52.258;12.840;2023-03-04T04:59:29;4.65;;;1.05;;
7460;SDS011;6757;52.258;12.840;2023-03-04T05:01:56;1.42;;;1.23;;
7460;SDS011;6757;52.258;12.840;2023-03-04T05:04:23;1.02;;;0.50;;
7460;SDS011;6757;52.258;12.840;2023-03-04T05:06:50;0.75;;;0.75;;
7460;SDS011;6757;52.258;12.840;2023-03-04T05:09:17;4.30;;;1.67;;
7460;SDS011;6757;52.258;12.840;2023-03-04T05:11:44;0.85;;;0.63;;
7460;SDS011;6757;52.258;12.840;2023-03-04T05:14:13;2.45;;;0.88;;
7460;SDS011;6757;52.258;12.840;2023-03-04T05:16:40;3.17;;;1.23;;
7460;SDS011;6757;52.258;12.840;2023-03-04T05:19:06;1.08;;;0.65;;
7460;SDS011;6757;52.258;12.840;2023-03-04T05:21:33;1.10;;;1.00;;
7460;SDS011;6757;52.258;12.840;2023-03-04T05:24:00;1.35;;;1.15;;
7460;SDS011;6757;52.258;12.840;2023-03-04T05:26:27;1.40;;;1.30;;
7460;SDS011;6757;52.258;12.840;2023-03-04T05:28:54;3.30;;;0.95;;
7460;SDS011;6757;52.258;12.840;2023-03-04T05:31:22;2.75;;;1.17;;
7460;SDS011;6757;52.258;12.840;2023-03-04T05:33:49;2.03;;;1.02;;
7460;SDS011;6757;52.258;12.840;2023-03-04T05:36:16;1.08;;;0.95;;
7460;SDS011;6757;52.258;12.840;2023-03-04T05:38:43;1.75;;;0.68;;
7460;SDS011;6757;52.258;12.840;2023-03-04T05:41:10;0.70;;;0.45;;
7460;SDS011;6757;52.258;12.840;2023-03-04T05:43:36;1.48;;;0.80;;
7460;SDS011;6757;52.258;12.840;2023-03-04T05:46:07;0.32;;;0.32;;
7460;SDS011;6757;52.258;12.840;2023-03-04T05:48:35;1.02;;;0.75;;
7460;SDS011;6757;52.258;12.840;2023-03-04T05:51:02;9.85;;;1.02;;
7460;SDS011;6757;52.258;12.840;2023-03-04T05:53:30;11.98;;;1.55;;
7460;SDS011;6757;52.258;12.840;2023-03-04T05:55:57;2.25;;;0.90;;
7460;SDS011;6757;52.258;12.840;2023-03-04T05:58:24;0.73;;;0.73;;
7460;SDS011;6757;52.258;12.840;2023-03-04T06:00:51;1.50;;;0.98;;
7460;SDS011;6757;52.258;12.840;2023-03-04T06:03:19;2.15;;;1.23;;
7460;SDS011;6757;52.258;12.840;2023-03-04T06:05:48;2.65;;;0.57;;
7460;SDS011;6757;52.258;12.840;2023-03-04T06:08:15;12.30;;;2.60;;
7460;SDS011;6757;52.258;12.840;2023-03-04T06:10:42;0.82;;;0.82;;
7460;SDS011;6757;52.258;12.840;2023-03-04T06:13:09;0.88;;;0.88;;
7460;SDS011;6757;52.258;12.840;2023-03-04T06:15:37;0.80;;;0.63;;
7460;SDS011;6757;52.258;12.840;2023-03-04T06:18:04;1.58;;;0.95;;
7460;SDS011;6757;52.258;12.840;2023-03-04T06:20:32;1.50;;;0.88;;
7460;SDS011;6757;52.258;12.840;2023-03-04T06:23:00;0.32;;;0.32;;
7460;SDS011;6757;52.258;12.840;2023-03-04T06:25:27;1.48;;;0.80;;
7460;SDS011;6757;52.258;12.840;2023-03-04T06:27:55;0.85;;;0.65;;
7460;SDS011;6757;52.258;12.840;2023-03-04T06:30:22;1.58;;;0.80;;
7460;SDS011;6757;52.258;12.840;2023-03-04T06:32:49;1.33;;;0.70;;
7460;SDS011;6757;52.258;12.840;2023-03-04T06:35:16;1.63;;;0.98;;
7460;SDS011;6757;52.258;12.840;2023-03-04T06:37:43;1.35;;;0.73;;
7460;SDS011;6757;52.258;12.840;2023-03-04T06:40:12;0.73;;;0.73;;
7460;SDS011;6757;52.258;12.840;2023-03-04T06:42:39;2.35;;;0.70;;
7460;SDS011;6757;52.258;12.840;2023-03-04T06:45:07;6.50;;;1.05;;
7460;SDS011;6757;52.258;12.840;2023-03-04T06:47:35;2.72;;;2.00;;
7460;SDS011;6757;52.258;12.840;2023-03-04T06:50:02;0.73;;;0.73;;
7460;SDS011;6757;52.258;12.840;2023-03-04T06:52:30;1.58;;;0.63;;
7460;SDS011;6757;52.258;12.840;2023-03-04T06:54:57;0.50;;;0.38;;
7460;SDS011;6757;52.258;12.840;2023-03-04T06:57:25;3.17;;;1.15;;
7460;SDS011;6757;52.258;12.840;2023-03-04T06:59:52;0.98;;;0.82;;
7460;SDS011;6757;52.258;12.840;2023-03-04T07:02:19;4.15;;;1.25;;
7460;SDS011;6757;52.258;12.840;2023-03-04T07:04:46;0.60;;;0.60;;
7460;SDS011;6757;52.258;12.840;2023-03-04T07:07:13;1.65;;;0.65;;
7460;SDS011;6757;52.258;12.840;2023-03-04T07:09:40;0.50;;;0.50;;
7460;SDS011;6757;52.258;12.840;2023-03-04T07:12:07;8.98;;;1.30;;
7460;SDS011;6757;52.258;12.840;2023-03-04T07:14:35;0.57;;;0.50;;
7460;SDS011;6757;52.258;12.840;2023-03-04T07:17:02;1.83;;;1.02;;
7460;SDS011;6757;52.258;12.840;2023-03-04T07:19:29;6.07;;;2.03;;
7460;SDS011;6757;52.258;12.840;2023-03-04T07:21:56;0.22;;;0.22;;
7460;SDS011;6757;52.258;12.840;2023-03-04T07:24:23;14.40;;;1.17;;
7460;SDS011;6757;52.258;12.840;2023-03-04T07:26:50;5.55;;;0.55;;
7460;SDS011;6757;52.258;12.840;2023-03-04T07:29:17;1.70;;;1.02;;
7460;SDS011;6757;52.258;12.840;2023-03-04T07:31:45;2.72;;;0.93;;
7460;SDS011;6757;52.258;12.840;2023-03-04T07:34:13;2.35;;;1.10;;
7460;SDS011;6757;52.258;12.840;2023-03-04T07:36:40;1.17;;;0.90;;
7460;SDS011;6757;52.258;12.840;2023-03-04T07:39:08;1.50;;;1.05;;
7460;SDS011;6757;52.258;12.840;2023-03-04T07:41:37;2.63;;;0.90;;
7460;SDS011;6757;52.258;12.840;2023-03-04T07:44:04;1.08;;;0.73;;
7460;SDS011;6757;52.258;12.840;2023-03-04T07:46:33;3.10;;;0.95;;
7460;SDS011;6757;52.258;12.840;2023-03-04T07:49:02;0.50;;;0.50;;
7460;SDS011;6757;52.258;12.840;2023-03-04T07:51:29;1.15;;;0.73;;
7460;SDS011;6757;52.258;12.840;2023-03-04T07:53:57;3.28;;;0.85;;
7460;SDS011;6757;52.258;12.840;2023-03-04T07:56:26;2.72;;;1.40;;
7460;SDS011;6757;52.258;12.840;2023-03-04T07:58:56;1.98;;;1.17;;
7460;SDS011;6757;52.258;12.840;2023-03-04T08:01:24;1.70;;;1.17;;
7460;SDS011;6757;52.258;12.840;2023-03-04T08:03:53;3.70;;;0.30;;
7460;SDS011;6757;52.258;12.840;2023-03-04T08:06:22;2.42;;;1.00;;
7460;SDS011;6757;52.258;12.840;2023-03-04T08:08:54;7.78;;;1.85;;
7460;SDS011;6757;52.258;12.840;2023-03-04T08:11:23;6.50;;;1.48;;
7460;SDS011;6757;52.258;12.840;2023-03-04T08:13:50;0.88;;;0.88;;
7460;SDS011;6757;52.258;12.840;2023-03-04T08:16:18;2.35;;;0.95;;
7460;SDS011;6757;52.258;12.840;2023-03-04T08:18:47;0.75;;;0.52;;
7460;SDS011;6757;52.258;12.840;2023-03-04T08:21:19;5.32;;;1.25;;
7460;SDS011;6757;52.258;12.840;2023-03-04T08:23:50;1.40;;;0.63;;
7460;SDS011;6757;52.258;12.840;2023-03-04T08:26:18;2.33;;;1.08;;
7460;SDS011;6757;52.258;12.840;2023-03-04T08:28:47;1.70;;;0.68;;
7460;SDS011;6757;52.258;12.840;2023-03-04T08:31:15;4.38;;;1.10;;
7460;SDS011;6757;52.258;12.840;2023-03-04T08:33:43;1.27;;;0.55;;
7460;SDS011;6757;52.258;12.840;2023-03-04T08:36:10;0.47;;;0.47;;
7460;SDS011;6757;52.258;12.840;2023-03-04T08:38:39;3.13;;;1.05;;
7460;SDS011;6757;52.258;12.840;2023-03-04T08:41:07;5.35;;;0.75;;
7460;SDS011;6757;52.258;12.840;2023-03-04T08:43:34;1.05;;;0.98;;
7460;SDS011;6757;52.258;12.840;2023-03-04T08:46:01;0.52;;;0.50;;
7460;SDS011;6757;52.258;12.840;2023-03-04T08:48:29;0.93;;;0.93;;
7460;SDS011;6757;52.258;12.840;2023-03-04T08:50:56;1.20;;;0.88;;
7460;SDS011;6757;52.258;12.840;2023-03-04T08:53:23;0.63;;;0.55;;
7460;SDS011;6757;52.258;12.840;2023-03-04T08:55:52;1.35;;;0.90;;
7460;SDS011;6757;52.258;12.840;2023-03-04T08:58:19;1.58;;;1.02;;
7460;SDS011;6757;52.258;12.840;2023-03-04T09:00:47;2.33;;;0.65;;
7460;SDS011;6757;52.258;12.840;2023-03-04T09:03:16;6.45;;;2.10;;
7460;SDS011;6757;52.258;12.840;2023-03-04T09:05:44;2.03;;;1.30;;
7460;SDS011;6757;52.258;12.840;2023-03-04T09:08:13;4.13;;;1.83;;
7460;SDS011;6757;52.258;12.840;2023-03-04T09:10:41;2.28;;;0.85;;
7460;SDS011;6757;52.258;12.840;2023-03-04T09:13:10;1.60;;;1.02;;
7460;SDS011;6757;52.258;12.840;2023-03-04T09:15:42;3.58;;;1.15;;
7460;SDS011;6757;52.258;12.840;2023-03-04T09:18:11;2.30;;;1.08;;
7460;SDS011;6757;52.258;12.840;2023-03-04T09:20:38;2.17;;;1.15;;
7460;SDS011;6757;52.258;12.840;2023-03-04T09:23:06;0.95;;;0.73;;
7460;SDS011;6757;52.258;12.840;2023-03-04T09:25:34;1.05;;;0.75;;
7460;SDS011;6757;52.258;12.840;2023-03-04T09:28:01;0.43;;;0.40;;
7460;SDS011;6757;52.258;12.840;2023-03-04T09:30:29;5.78;;;2.42;;
7460;SDS011;6757;52.258;12.840;2023-03-04T09:32:57;1.65;;;0.80;;
7460;SDS011;6757;52.258;12.840;2023-03-04T09:35:24;8.55;;;1.27;;
7460;SDS011;6757;52.258;12.840;2023-03-04T09:37:51;3.05;;;1.30;;
7460;SDS011;6757;52.258;12.840;2023-03-04T09:40:19;1.05;;;0.93;;
7460;SDS011;6757;52.258;12.840;2023-03-04T09:42:49;3.90;;;1.27;;
7460;SDS011;6757;52.258;12.840;2023-03-04T09:45:20;1.35;;;1.15;;
7460;SDS011;6757;52.258;12.840;2023-03-04T09:47:51;1.98;;;1.35;;
7460;SDS011;6757;52.258;12.840;2023-03-04T09:50:20;3.28;;;1.42;;
7460;SDS011;6757;52.258;12.840;2023-03-04T09:52:51;0.98;;;0.88;;
7460;SDS011;6757;52.258;12.840;2023-03-04T09:55:33;7.15;;;1.63;;
7460;SDS011;6757;52.258;12.840;2023-03-04T09:58:05;4.68;;;1.50;;
7460;SDS011;6757;52.258;12.840;2023-03-04T10:00:42;1.20;;;1.13;;
7460;SDS011;6757;52.258;12.840;2023-03-04T10:03:15;2.17;;;1.02;;
7460;SDS011;6757;52.258;12.840;2023-03-04T10:05:48;1.73;;;1.05;;
7460;SDS011;6757;52.258;12.840;2023-03-04T10:08:25;2.25;;;1.00;;
7460;SDS011;6757;52.258;12.840;2023-03-04T10:11:03;1.20;;;0.70;;
7460;SDS011;6757;52.258;12.840;2023-03-04T10:13:39;2.63;;;1.05;;
7460;SDS011;6757;52.258;12.840;2023-03-04T10:16:17;1.33;;;1.02;;
7460;SDS011;6757;52.258;12.840;2023-03-04T10:18:49;1.40;;;1.10;;
7460;SDS011;6757;52.258;12.840;2023-03-04T10:21:22;1.67;;;0.70;;
7460;SDS011;6757;52.258;12.840;2023-03-04T10:23:56;2.78;;;1.35;;
7460;SDS011;6757;52.258;12.840;2023-03-04T10:26:27;4.70;;;1.65;;
7460;SDS011;6757;52.258;12.840;2023-03-04T10:28:57;2.80;;;1.63;;
7460;SDS011;6757;52.258;12.840;2023-03-04T10:31:29;4.85;;;1.67;;
7460;SDS011;6757;52.258;12.840;2023-03-04T10:34:01;2.67;;;1.17;;
7460;SDS011;6757;52.258;12.840;2023-03-04T10:36:32;7.82;;;0.98;;
7460;SDS011;6757;52.258;12.840;2023-03-04T10:39:15;1.58;;;1.30;;
7460;SDS011;6757;52.258;12.840;2023-03-04T10:41:52;2.00;;;1.27;;
7460;SDS011;6757;52.258;12.840;2023-03-04T10:44:22;1.92;;;1.08;;
7460;SDS011;6757;52.258;12.840;2023-03-04T10:46:50;1.33;;;0.85;;
7460;SDS011;6757;52.258;12.840;2023-03-04T10:49:22;2.78;;;1.63;;
7460;SDS011;6757;52.258;12.840;2023-03-04T10:51:52;3.03;;;1.63;;
7460;SDS011;6757;52.258;12.840;2023-03-04T10:54:25;1.27;;;1.17;;
7460;SDS011;6757;52.258;12.840;2023-03-04T10:56:56;4.03;;;2.30;;
7460;SDS011;6757;52.258;12.840;2023-03-04T11:02:24;1.23;;;1.10;;
7460;SDS011;6757;52.258;12.840;2023-03-04T11:04:55;0.82;;;0.82;;
7460;SDS011;6757;52.258;12.840;2023-03-04T11:07:35;9.45;;;1.67;;
7460;SDS011;6757;52.258;12.840;2023-03-04T11:10:09;6.88;;;2.47;;
7460;SDS011;6757;52.258;12.840;2023-03-04T11:12:40;6.93;;;2.55;;
7460;SDS011;6757;52.258;12.840;2023-03-04T11:15:17;11.45;;;1.83;;
7460;SDS011;6757;52.258;12.840;2023-03-04T11:17:51;1.35;;;0.52;;
7460;SDS011;6757;52.258;12.840;2023-03-04T11:20:27;3.13;;;0.93;;
7460;SDS011;6757;52.258;12.840;2023-03-04T11:22:59;3.88;;;1.27;;
7460;SDS011;6757;52.258;12.840;2023-03-04T11:25:31;6.85;;;1.25;;
7460;SDS011;6757;52.258;12.840;2023-03-04T11:28:02;1.33;;;1.05;;
7460;SDS011;6757;52.258;12.840;2023-03-04T11:30:37;6.93;;;1.42;;
7460;SDS011;6757;52.258;12.840;2023-03-04T11:33:13;3.10;;;0.90;;
7460;SDS011;6757;52.258;12.840;2023-03-04T11:35:56;3.10;;;1.38;;
7460;SDS011;6757;52.258;12.840;2023-03-04T11:38:35;1.67;;;1.05;;
7460;SDS011;6757;52.258;12.840;2023-03-04T11:41:09;1.27;;;0.73;;
7460;SDS011;6757;52.258;12.840;2023-03-04T11:46:19;9.02;;;2.40;;
7460;SDS011;6757;52.258;12.840;2023-03-04T11:49:28;3.33;;;1.35;;
7460;SDS011;6757;52.258;12.840;2023-03-04T11:52:38;13.13;;;1.83;;
7460;SDS011;6757;52.258;12.840;2023-03-04T11:55:26;4.03;;;1.83;;
7460;SDS011;6757;52.258;12.840;2023-03-04T11:58:14;4.70;;;1.83;;
7460;SDS011;6757;52.258;12.840;2023-03-04T12:01:04;7.40;;;1.50;;
7460;SDS011;6757;52.258;12.840;2023-03-04T12:03:41;7.07;;;1.40;;
7460;SDS011;6757;52.258;12.840;2023-03-04T12:06:27;7.40;;;1.98;;
7460;SDS011;6757;52.258;12.840;2023-03-04T12:09:09;3.33;;;1.20;;
7460;SDS011;6757;52.258;12.840;2023-03-04T12:11:54;7.22;;;2.08;;
7460;SDS011;6757;52.258;12.840;2023-03-04T12:14:31;8.52;;;2.20;;
7460;SDS011;6757;52.258;12.840;2023-03-04T12:17:17;3.90;;;1.77;;
7460;SDS011;6757;52.258;12.840;2023-03-04T12:20:16;1.95;;;1.20;;
7460;SDS011;6757;52.258;12.840;2023-03-04T12:23:01;7.82;;;1.77;;
7460;SDS011;6757;52.258;12.840;2023-03-04T12:25:41;5.70;;;1.30;;
7460;SDS011;6757;52.258;12.840;2023-03-04T12:28:20;5.40;;;1.50;;
7460;SDS011;6757;52.258;12.840;2023-03-04T12:31:19;5.50;;;2.05;;
7460;SDS011;6757;52.258;12.840;2023-03-04T12:34:03;2.30;;;1.33;;
7460;SDS011;6757;52.258;12.840;2023-03-04T12:37:23;4.15;;;1.88;;
7460;SDS011;6757;52.258;12.840;2023-03-04T12:40:26;1.52;;;1.08;;
7460;SDS011;6757;52.258;12.840;2023-03-04T12:45:57;2.97;;;1.38;;
7460;SDS011;6757;52.258;12.840;2023-03-04T12:48:34;7.47;;;1.55;;
7460;SDS011;6757;52.258;12.840;2023-03-04T12:51:07;2.15;;;0.47;;
7460;SDS011;6757;52.258;12.840;2023-03-04T12:53:56;2.22;;;1.25;;
7460;SDS011;6757;52.258;12.840;2023-03-04T12:56:36;2.80;;;0.90;;
7460;SDS011;6757;52.258;12.840;2023-03-04T12:59:12;5.30;;;1.35;;
7460;SDS011;6757;52.258;12.840;2023-03-04T13:01:43;2.42;;;1.00;;
7460;SDS011;6757;52.258;12.840;2023-03-04T13:04:20;4.88;;;1.33;;
7460;SDS011;6757;52.258;12.840;2023-03-04T13:06:56;11.40;;;1.48;;
7460;SDS011;6757;52.258;12.840;2023-03-04T13:09:39;0.95;;;0.70;;
7460;SDS011;6757;52.258;12.840;2023-03-04T13:12:14;5.18;;;1.33;;
7460;SDS011;6757;52.258;12.840;2023-03-04T13:17:52;0.73;;;0.73;;
7460;SDS011;6757;52.258;12.840;2023-03-04T13:20:22;3.45;;;1.45;;
7460;SDS011;6757;52.258;12.840;2023-03-04T13:22:58;1.92;;;0.77;;
7460;SDS011;6757;52.258;12.840;2023-03-04T13:25:38;10.30;;;1.85;;
7460;SDS011;6757;52.258;12.840;2023-03-04T13:28:20;2.15;;;0.88;;
7460;SDS011;6757;52.258;12.840;2023-03-04T13:33:58;3.40;;;1.33;;
7460;SDS011;6757;52.258;12.840;2023-03-04T13:36:31;4.07;;;1.02;;
7460;SDS011;6757;52.258;12.840;2023-03-04T13:45:28;1.98;;;1.10;;
7460;SDS011;6757;52.258;12.840;2023-03-04T13:47:59;1.00;;;0.80;;
7460;SDS011;6757;52.258;12.840;2023-03-04T13:50:28;5.18;;;1.50;;
7460;SDS011;6757;52.258;12.840;2023-03-04T13:56:09;5.53;;;2.33;;
7460;SDS011;6757;52.258;12.840;2023-03-04T13:58:50;8.05;;;2.90;;
7460;SDS011;6757;52.258;12.840;2023-03-04T14:01:29;6.35;;;1.95;;
7460;SDS011;6757;52.258;12.840;2023-03-04T14:03:59;2.42;;;1.15;;
7460;SDS011;6757;52.258;12.840;2023-03-04T14:06:39;0.68;;;0.43;;
7460;SDS011;6757;52.258;12.840;2023-03-04T14:09:11;1.02;;;1.02;;
7460;SDS011;6757;52.258;12.840;2023-03-04T14:11:39;2.63;;;1.70;;
7460;SDS011;6757;52.258;12.840;2023-03-04T14:14:10;2.50;;;0.50;;
7460;SDS011;6757;52.258;12.840;2023-03-04T14:16:44;0.63;;;0.63;;
7460;SDS011;6757;52.258;12.840;2023-03-04T14:19:18;1.45;;;1.35;;
7460;SDS011;6757;52.258;12.840;2023-03-04T14:21:50;4.63;;;1.75;;
7460;SDS011;6757;52.258;12.840;2023-03-04T14:24:18;5.30;;;0.75;;
7460;SDS011;6757;52.258;12.840;2023-03-04T14:26:47;2.28;;;1.10;;
7460;SDS011;6757;52.258;12.840;2023-03-04T14:29:22;3.95;;;1.17;;
7460;SDS011;6757;52.258;12.840;2023-03-04T14:31:52;2.47;;;0.85;;
7460;SDS011;6757;52.258;12.840;2023-03-04T14:34:24;6.25;;;1.83;;
7460;SDS011;6757;52.258;12.840;2023-03-04T14:36:57;3.95;;;1.70;;
7460;SDS011;6757;52.258;12.840;2023-03-04T14:39:24;5.38;;;1.40;;
7460;SDS011;6757;52.258;12.840;2023-03-04T14:41:55;8.55;;;1.27;;
7460;SDS011;6757;52.258;12.840;2023-03-04T14:44:27;9.18;;;1.40;;
7460;SDS011;6757;52.258;12.840;2023-03-04T14:47:01;2.60;;;2.17;;
7460;SDS011;6757;52.258;12.840;2023-03-04T14:49:39;5.97;;;1.10;;
7460;SDS011;6757;52.258;12.840;2023-03-04T14:52:24;3.38;;;0.77;;
7460;SDS011;6757;52.258;12.840;2023-03-04T14:54:58;2.13;;;0.85;;
7460;SDS011;6757;52.258;12.840;2023-03-04T14:57:30;1.88;;;1.08;;
7460;SDS011;6757;52.258;12.840;2023-03-04T15:00:13;7.82;;;1.95;;
7460;SDS011;6757;52.258;12.840;2023-03-04T15:02:43;3.83;;;1.77;;
7460;SDS011;6757;52.258;12.840;2023-03-04T15:05:15;2.72;;;2.00;;
7460;SDS011;6757;52.258;12.840;2023-03-04T15:07:48;6.93;;;2.03;;
7460;SDS011;6757;52.258;12.840;2023-03-04T15:10:19;2.50;;;1.55;;
7460;SDS011;6757;52.258;12.840;2023-03-04T15:12:52;3.70;;;1.38;;
7460;SDS011;6757;52.258;12.840;2023-03-04T15:15:31;8.75;;;1.73;;
7460;SDS011;6757;52.258;12.840;2023-03-04T15:18:02;2.72;;;1.60;;
7460;SDS011;6757;52.258;12.840;2023-03-04T15:20:50;7.30;;;2.40;;
7460;SDS011;6757;52.258;12.840;2023-03-04T15:23:19;3.53;;;1.80;;
7460;SDS011;6757;52.258;12.840;2023-03-04T15:25:49;4.45;;;2.15;;
7460;SDS011;6757;52.258;12.840;2023-03-04T15:28:18;6.65;;;1.90;;
7460;SDS011;6757;52.258;12.840;2023-03-04T15:30:46;2.35;;;1.58;;
7460;SDS011;6757;52.258;12.840;2023-03-04T15:33:13;3.15;;;1.40;;
7460;SDS011;6757;52.258;12.840;2023-03-04T15:35:43;3.22;;;1.65;;
7460;SDS011;6757;52.258;12.840;2023-03-04T15:38:18;6.10;;;3.13;;
7460;SDS011;6757;52.258;12.840;2023-03-04T15:40:45;2.97;;;1.67;;
7460;SDS011;6757;52.258;12.840;2023-03-04T15:43:12;5.55;;;1.98;;
7460;SDS011;6757;52.258;12.840;2023-03-04T15:45:42;3.55;;;1.55;;